sensor_id;sensor_type;location;lat;lon;timestamp;P1;durP1;ratioP1;P2;durP2;ratioP2
65825;SDS011;52586;-43.152;172.732;2023-04-03T00:02:02;1.30;;;0.77;;
65825;SDS011;52586;-43.152;172.732;2023-04-03T00:04:33;1.08;;;0.80;;
65825;SDS011;52586;-43.152;172.732;2023-04-03T00:07:05;1.50;;;0.95;;
65825;SDS011;52586;-43.152;172.732;2023-04-03T00:09:36;2.38;;;0.80;;
65825;SDS011;52586;-43.152;172.732;2023-04-03T00:12:07;0.88;;;0.80;;
65825;SDS011;52586;-43.152;172.732;2023-04-03T00:14:37;2.05;;;1.00;;
65825;SDS011;52586;-43.152;172.732;2023-04-03T00:17:08;2.25;;;0.85;;
65825;SDS011;52586;-43.152;172.732;2023-04-03T00:19:39;1.95;;;0.82;;
65825;SDS011;52586;-43.152;172.732;2023-04-03T00:22:11;2.05;;;0.95;;
65825;SDS011;52586;-43.152;172.732;2023-04-03T00:24:42;2.45;;;1.10;;
65825;SDS011;52586;-43.152;172.732;2023-04-03T00:27:12;1.40;;;0.63;;
65825;SDS011;52586;-43.152;172.732;2023-04-03T00:29:44;2.35;;;1.00;;
65825;SDS011;52586;-43.152;172.732;2023-04-03T00:32:14;2.33;;;0.85;;
65825;SDS011;52586;-43.152;172.732;2023-04-03T00:34:45;1.88;;;1.00;;
65825;SDS011;52586;-43.152;172.732;2023-04-03T00:37:17;1.70;;;0.98;;
65825;SDS011;52586;-43.152;172.732;2023-04-03T00:39:48;3.47;;;1.00;;
65825;SDS011;52586;-43.152;172.732;2023-04-03T00:42:19;2.85;;;1.13;;
65825;SDS011;52586;-43.152;172.732;2023-04-03T00:47:56;1.50;;;1.23;;
65825;SDS011;52586;-43.152;172.732;2023-04-03T00:50:28;2.67;;;1.08;;
65825;SDS011;52586;-43.152;172.732;2023-04-03T00:53:01;1.30;;;0.80;;
65825;SDS011;52586;-43.152;172.732;2023-04-03T00:55:35;1.40;;;1.00;;
65825;SDS011;52586;-43.152;172.732;2023-04-03T00:58:06;1.52;;;0.82;;
65825;SDS011;52586;-43.152;172.732;2023-04-03T01:00:38;2.42;;;1.05;;
65825;SDS011;52586;-43.152;172.732;2023-04-03T01:03:12;1.63;;;0.82;;
65825;SDS011;52586;-43.152;172.732;2023-04-03T01:05:42;1.95;;;0.88;;
65825;SDS011;52586;-43.152;172.732;2023-04-03T01:08:15;2.33;;;1.00;;
65825;SDS011;52586;-43.152;172.732;2023-04-03T01:10:46;0.98;;;0.65;;
65825;SDS011;52586;-43.152;172.732;2023-04-03T01:13:23;1.83;;;1.00;;
65825;SDS011;52586;-43.152;172.732;2023-04-03T01:15:55;1.80;;;0.82;;
65825;SDS011;52586;-43.152;172.732;2023-04-03T01:18:28;1.77;;;0.90;;
65825;SDS011;52586;-43.152;172.732;2023-04-03T01:24:31;1.63;;;1.20;;
65825;SDS011;52586;-43.152;172.732;2023-04-03T01:27:07;2.75;;;1.13;;
65825;SDS011;52586;-43.152;172.732;2023-04-03T01:29:40;1.42;;;0.80;;
65825;SDS011;52586;-43.152;172.732;2023-04-03T01:32:13;2.47;;;1.25;;
65825;SDS011;52586;-43.152;172.732;2023-04-03T01:34:44;2.88;;;1.15;;
65825;SDS011;52586;-43.152;172.732;2023-04-03T01:37:15;1.60;;;0.95;;
65825;SDS011;52586;-43.152;172.732;2023-04-03T01:39:45;1.85;;;1.05;;
65825;SDS011;52586;-43.152;172.732;2023-04-03T01:42:16;1.15;;;0.80;;
65825;SDS011;52586;-43.152;172.732;2023-04-03T01:44:47;2.17;;;1.10;;
65825;SDS011;52586;-43.152;172.732;2023-04-03T01:47:19;1.83;;;0.80;;
65825;SDS011;52586;-43.152;172.732;2023-04-03T01:49:50;3.05;;;1.33;;
65825;SDS011;52586;-43.152;172.732;2023-04-03T01:52:21;2.35;;;1.00;;
65825;SDS011;52586;-43.152;172.732;2023-04-03T01:54:51;1.17;;;0.82;;
65825;SDS011;52586;-43.152;172.732;2023-04-03T01:57:22;2.38;;;1.17;;
65825;SDS011;52586;-43.152;172.732;2023-04-03T01:59:53;1.08;;;0.80;;
65825;SDS011;52586;-43.152;172.732;2023-04-03T02:02:25;2.22;;;0.93;;
65825;SDS011;52586;-43.152;172.732;2023-04-03T02:04:56;2.10;;;1.02;;
65825;SDS011;52586;-43.152;172.732;2023-04-03T02:07:27;1.17;;;0.70;;
65825;SDS011;52586;-43.152;172.732;2023-04-03T02:09:57;1.88;;;0.85;;
65825;SDS011;52586;-43.152;172.732;2023-04-03T02:12:28;0.95;;;0.70;;
65825;SDS011;52586;-43.152;172.732;2023-04-03T02:14:58;1.67;;;0.80;;
65825;SDS011;52586;-43.152;172.732;2023-04-03T02:17:31;1.40;;;0.82;;
65825;SDS011;52586;-43.152;172.732;2023-04-03T02:20:02;1.75;;;0.80;;
65825;SDS011;52586;-43.152;172.732;2023-04-03T02:22:33;1.92;;;0.80;;
65825;SDS011;52586;-43.152;172.732;2023-04-03T02:25:04;1.73;;;0.75;;
65825;SDS011;52586;-43.152;172.732;2023-04-03T02:27:35;1.80;;;0.80;;
65825;SDS011;52586;-43.152;172.732;2023-04-03T02:30:06;1.60;;;0.73;;
65825;SDS011;52586;-43.152;172.732;2023-04-03T02:32:39;2.20;;;0.95;;
65825;SDS011;52586;-43.152;172.732;2023-04-03T02:35:10;1.75;;;0.80;;
65825;SDS011;52586;-43.152;172.732;2023-04-03T02:37:41;1.17;;;1.05;;
65825;SDS011;52586;-43.152;172.732;2023-04-03T02:40:12;0.82;;;0.70;;
65825;SDS011;52586;-43.152;172.732;2023-04-03T02:42:42;1.45;;;0.75;;
65825;SDS011;52586;-43.152;172.732;2023-04-03T02:45:13;2.40;;;0.70;;
65825;SDS011;52586;-43.152;172.732;2023-04-03T02:47:46;1.92;;;0.70;;
65825;SDS011;52586;-43.152;172.732;2023-04-03T02:50:16;1.60;;;0.70;;
65825;SDS011;52586;-43.152;172.732;2023-04-03T02:52:47;0.80;;;0.60;;
65825;SDS011;52586;-43.152;172.732;2023-04-03T02:55:18;1.60;;;0.90;;
65825;SDS011;52586;-43.152;172.732;2023-04-03T02:57:48;1.80;;;1.02;;
65825;SDS011;52586;-43.152;172.732;2023-04-03T03:00:19;1.38;;;0.77;;
65825;SDS011;52586;-43.152;172.732;2023-04-03T03:02:52;1.27;;;0.80;;
65825;SDS011;52586;-43.152;172.732;2023-04-03T03:05:23;2.00;;;0.90;;
65825;SDS011;52586;-43.152;172.732;2023-04-03T03:07:53;2.60;;;0.82;;
65825;SDS011;52586;-43.152;172.732;2023-04-03T03:10:24;1.13;;;0.80;;
65825;SDS011;52586;-43.152;172.732;2023-04-03T03:12:55;2.22;;;1.00;;
65825;SDS011;52586;-43.152;172.732;2023-04-03T03:15:25;1.02;;;0.75;;
65825;SDS011;52586;-43.152;172.732;2023-04-03T03:17:58;1.42;;;0.93;;
65825;SDS011;52586;-43.152;172.732;2023-04-03T03:20:29;1.60;;;0.80;;
65825;SDS011;52586;-43.152;172.732;2023-04-03T03:22:59;2.17;;;0.80;;
65825;SDS011;52586;-43.152;172.732;2023-04-03T03:25:30;2.72;;;0.85;;
65825;SDS011;52586;-43.152;172.732;2023-04-03T03:28:01;2.17;;;0.90;;
65825;SDS011;52586;-43.152;172.732;2023-04-03T03:30:31;1.30;;;0.73;;
65825;SDS011;52586;-43.152;172.732;2023-04-03T03:33:04;1.70;;;1.05;;
65825;SDS011;52586;-43.152;172.732;2023-04-03T03:35:34;1.88;;;0.75;;
65825;SDS011;52586;-43.152;172.732;2023-04-03T03:38:06;1.33;;;0.77;;
65825;SDS011;52586;-43.152;172.732;2023-04-03T03:40:36;1.77;;;1.10;;
65825;SDS011;52586;-43.152;172.732;2023-04-03T03:43:07;2.10;;;0.95;;
65825;SDS011;52586;-43.152;172.732;2023-04-03T03:45:38;1.00;;;0.70;;
65825;SDS011;52586;-43.152;172.732;2023-04-03T03:48:10;1.60;;;0.80;;
65825;SDS011;52586;-43.152;172.732;2023-04-03T03:50:41;1.80;;;1.00;;
65825;SDS011;52586;-43.152;172.732;2023-04-03T03:53:13;3.03;;;1.10;;
65825;SDS011;52586;-43.152;172.732;2023-04-03T03:55:44;1.25;;;0.95;;
65825;SDS011;52586;-43.152;172.732;2023-04-03T03:58:15;1.42;;;0.80;;
65825;SDS011;52586;-43.152;172.732;2023-04-03T04:00:46;1.58;;;0.77;;
65825;SDS011;52586;-43.152;172.732;2023-04-03T04:03:18;1.50;;;0.80;;
65825;SDS011;52586;-43.152;172.732;2023-04-03T04:05:49;1.50;;;0.70;;
65825;SDS011;52586;-43.152;172.732;2023-04-03T04:08:20;1.60;;;0.75;;
65825;SDS011;52586;-43.152;172.732;2023-04-03T04:10:51;1.33;;;0.80;;
65825;SDS011;52586;-43.152;172.732;2023-04-03T04:13:22;1.85;;;0.70;;
65825;SDS011;52586;-43.152;172.732;2023-04-03T04:15:53;2.40;;;0.80;;
65825;SDS011;52586;-43.152;172.732;2023-04-03T04:18:25;0.70;;;0.60;;
65825;SDS011;52586;-43.152;172.732;2023-04-03T04:20:56;1.95;;;0.90;;
65825;SDS011;52586;-43.152;172.732;2023-04-03T04:23:27;1.33;;;0.90;;
65825;SDS011;52586;-43.152;172.732;2023-04-03T04:25:57;0.95;;;0.77;;
65825;SDS011;52586;-43.152;172.732;2023-04-03T04:28:28;1.23;;;0.70;;
65825;SDS011;52586;-43.152;172.732;2023-04-03T04:30:59;1.42;;;0.80;;
65825;SDS011;52586;-43.152;172.732;2023-04-03T04:33:31;1.92;;;1.05;;
65825;SDS011;52586;-43.152;172.732;2023-04-03T04:36:02;0.93;;;0.70;;
65825;SDS011;52586;-43.152;172.732;2023-04-03T04:38:33;1.50;;;0.70;;
65825;SDS011;52586;-43.152;172.732;2023-04-03T04:41:04;2.15;;;0.90;;
65825;SDS011;52586;-43.152;172.732;2023-04-03T04:43:35;2.00;;;0.80;;
65825;SDS011;52586;-43.152;172.732;2023-04-03T04:46:06;1.58;;;0.68;;
65825;SDS011;52586;-43.152;172.732;2023-04-03T04:48:40;1.20;;;0.70;;
65825;SDS011;52586;-43.152;172.732;2023-04-03T04:51:11;1.08;;;0.70;;
65825;SDS011;52586;-43.152;172.732;2023-04-03T04:53:42;1.88;;;0.80;;
65825;SDS011;52586;-43.152;172.732;2023-04-03T04:56:12;1.92;;;0.80;;
65825;SDS011;52586;-43.152;172.732;2023-04-03T04:58:43;1.63;;;1.00;;
65825;SDS011;52586;-43.152;172.732;2023-04-03T05:01:14;1.95;;;0.85;;
65825;SDS011;52586;-43.152;172.732;2023-04-03T05:03:46;1.00;;;0.80;;
65825;SDS011;52586;-43.152;172.732;2023-04-03T05:06:17;1.77;;;0.70;;
65825;SDS011;52586;-43.152;172.732;2023-04-03T05:08:47;0.60;;;0.40;;
65825;SDS011;52586;-43.152;172.732;2023-04-03T05:11:18;1.30;;;0.60;;
65825;SDS011;52586;-43.152;172.732;2023-04-03T05:13:49;1.27;;;0.80;;
65825;SDS011;52586;-43.152;172.732;2023-04-03T05:16:20;1.42;;;0.70;;
65825;SDS011;52586;-43.152;172.732;2023-04-03T05:18:53;2.45;;;0.88;;
65825;SDS011;52586;-43.152;172.732;2023-04-03T05:21:24;1.30;;;1.00;;
65825;SDS011;52586;-43.152;172.732;2023-04-03T05:23:58;1.85;;;0.70;;
65825;SDS011;52586;-43.152;172.732;2023-04-03T05:26:29;1.75;;;0.73;;
65825;SDS011;52586;-43.152;172.732;2023-04-03T05:29:00;3.72;;;1.20;;
65825;SDS011;52586;-43.152;172.732;2023-04-03T05:31:31;5.05;;;0.98;;
65825;SDS011;52586;-43.152;172.732;2023-04-03T05:34:03;2.65;;;0.82;;
65825;SDS011;52586;-43.152;172.732;2023-04-03T05:36:34;3.85;;;1.20;;
65825;SDS011;52586;-43.152;172.732;2023-04-03T05:39:05;3.08;;;1.00;;
65825;SDS011;52586;-43.152;172.732;2023-04-03T05:41:35;4.68;;;1.00;;
65825;SDS011;52586;-43.152;172.732;2023-04-03T05:44:06;3.88;;;0.98;;
65825;SDS011;52586;-43.152;172.732;2023-04-03T05:46:37;1.88;;;1.00;;
65825;SDS011;52586;-43.152;172.732;2023-04-03T05:49:09;1.40;;;0.90;;
65825;SDS011;52586;-43.152;172.732;2023-04-03T05:51:40;1.88;;;0.80;;
65825;SDS011;52586;-43.152;172.732;2023-04-03T05:54:12;0.88;;;0.70;;
65825;SDS011;52586;-43.152;172.732;2023-04-03T05:56:46;4.60;;;1.38;;
65825;SDS011;52586;-43.152;172.732;2023-04-03T05:59:17;2.50;;;1.10;;
65825;SDS011;52586;-43.152;172.732;2023-04-03T06:01:48;3.10;;;1.10;;
65825;SDS011;52586;-43.152;172.732;2023-04-03T06:04:20;1.85;;;0.93;;
65825;SDS011;52586;-43.152;172.732;2023-04-03T06:06:52;3.08;;;0.85;;
65825;SDS011;52586;-43.152;172.732;2023-04-03T06:09:24;3.50;;;1.00;;
65825;SDS011;52586;-43.152;172.732;2023-04-03T06:11:56;1.55;;;0.90;;
65825;SDS011;52586;-43.152;172.732;2023-04-03T06:14:27;4.22;;;0.90;;
65825;SDS011;52586;-43.152;172.732;2023-04-03T06:16:58;1.95;;;0.80;;
65825;SDS011;52586;-43.152;172.732;2023-04-03T06:19:31;1.73;;;0.60;;
65825;SDS011;52586;-43.152;172.732;2023-04-03T06:22:02;1.92;;;0.80;;
65825;SDS011;52586;-43.152;172.732;2023-04-03T06:24:33;2.63;;;0.90;;
65825;SDS011;52586;-43.152;172.732;2023-04-03T06:27:04;1.67;;;0.75;;
65825;SDS011;52586;-43.152;172.732;2023-04-03T06:29:35;2.55;;;0.93;;
65825;SDS011;52586;-43.152;172.732;2023-04-03T06:32:05;1.92;;;0.90;;
65825;SDS011;52586;-43.152;172.732;2023-04-03T06:34:38;2.45;;;1.00;;
65825;SDS011;52586;-43.152;172.732;2023-04-03T06:37:10;1.92;;;0.98;;
65825;SDS011;52586;-43.152;172.732;2023-04-03T06:39:45;3.35;;;0.90;;
65825;SDS011;52586;-43.152;172.732;2023-04-03T06:42:16;2.75;;;1.08;;
65825;SDS011;52586;-43.152;172.732;2023-04-03T06:44:47;3.15;;;1.25;;
65825;SDS011;52586;-43.152;172.732;2023-04-03T06:47:17;2.33;;;1.27;;
65825;SDS011;52586;-43.152;172.732;2023-04-03T06:49:50;3.42;;;1.08;;
65825;SDS011;52586;-43.152;172.732;2023-04-03T06:52:21;1.85;;;1.00;;
65825;SDS011;52586;-43.152;172.732;2023-04-03T06:54:52;1.70;;;0.90;;
65825;SDS011;52586;-43.152;172.732;2023-04-03T06:57:23;2.35;;;0.90;;
65825;SDS011;52586;-43.152;172.732;2023-04-03T06:59:54;1.98;;;1.00;;
65825;SDS011;52586;-43.152;172.732;2023-04-03T07:02:25;1.73;;;0.90;;
65825;SDS011;52586;-43.152;172.732;2023-04-03T07:04:57;1.13;;;1.00;;
65825;SDS011;52586;-43.152;172.732;2023-04-03T07:07:28;1.60;;;0.90;;
65825;SDS011;52586;-43.152;172.732;2023-04-03T07:10:00;1.90;;;0.90;;
65825;SDS011;52586;-43.152;172.732;2023-04-03T07:12:30;1.50;;;1.10;;
65825;SDS011;52586;-43.152;172.732;2023-04-03T07:15:01;1.33;;;0.93;;
65825;SDS011;52586;-43.152;172.732;2023-04-03T07:17:32;2.03;;;0.95;;
65825;SDS011;52586;-43.152;172.732;2023-04-03T07:20:06;1.75;;;0.90;;
65825;SDS011;52586;-43.152;172.732;2023-04-03T07:22:37;2.20;;;0.98;;
65825;SDS011;52586;-43.152;172.732;2023-04-03T07:25:08;2.00;;;0.95;;
65825;SDS011;52586;-43.152;172.732;2023-04-03T07:27:39;2.22;;;1.20;;
65825;SDS011;52586;-43.152;172.732;2023-04-03T07:30:10;2.17;;;1.02;;
65825;SDS011;52586;-43.152;172.732;2023-04-03T07:32:41;3.00;;;1.33;;
65825;SDS011;52586;-43.152;172.732;2023-04-03T07:35:14;1.80;;;1.10;;
65825;SDS011;52586;-43.152;172.732;2023-04-03T07:37:44;2.90;;;1.02;;
65825;SDS011;52586;-43.152;172.732;2023-04-03T07:40:15;1.95;;;1.17;;
65825;SDS011;52586;-43.152;172.732;2023-04-03T07:42:46;2.58;;;1.10;;
65825;SDS011;52586;-43.152;172.732;2023-04-03T07:45:16;1.25;;;1.00;;
65825;SDS011;52586;-43.152;172.732;2023-04-03T07:47:48;1.35;;;1.13;;
65825;SDS011;52586;-43.152;172.732;2023-04-03T07:50:21;2.30;;;1.00;;
65825;SDS011;52586;-43.152;172.732;2023-04-03T07:52:53;3.47;;;1.08;;
65825;SDS011;52586;-43.152;172.732;2023-04-03T07:55:24;2.72;;;0.90;;
65825;SDS011;52586;-43.152;172.732;2023-04-03T07:57:54;1.60;;;1.15;;
65825;SDS011;52586;-43.152;172.732;2023-04-03T08:00:25;2.53;;;1.02;;
65825;SDS011;52586;-43.152;172.732;2023-04-03T08:02:56;1.52;;;1.00;;
65825;SDS011;52586;-43.152;172.732;2023-04-03T08:05:28;2.58;;;0.93;;
65825;SDS011;52586;-43.152;172.732;2023-04-03T08:07:59;1.77;;;1.00;;
65825;SDS011;52586;-43.152;172.732;2023-04-03T08:10:29;2.03;;;1.00;;
65825;SDS011;52586;-43.152;172.732;2023-04-03T08:13:01;1.75;;;1.00;;
65825;SDS011;52586;-43.152;172.732;2023-04-03T08:15:31;1.52;;;1.13;;
65825;SDS011;52586;-43.152;172.732;2023-04-03T08:18:02;1.55;;;1.20;;
65825;SDS011;52586;-43.152;172.732;2023-04-03T08:20:35;2.30;;;1.20;;
65825;SDS011;52586;-43.152;172.732;2023-04-03T08:23:07;1.52;;;1.00;;
65825;SDS011;52586;-43.152;172.732;2023-04-03T08:25:38;1.88;;;1.10;;
65825;SDS011;52586;-43.152;172.732;2023-04-03T08:28:10;1.73;;;0.98;;
65825;SDS011;52586;-43.152;172.732;2023-04-03T08:30:41;2.55;;;1.10;;
65825;SDS011;52586;-43.152;172.732;2023-04-03T08:33:12;1.38;;;1.20;;
65825;SDS011;52586;-43.152;172.732;2023-04-03T08:35:45;2.55;;;0.90;;
65825;SDS011;52586;-43.152;172.732;2023-04-03T08:38:15;1.92;;;1.30;;
65825;SDS011;52586;-43.152;172.732;2023-04-03T08:40:46;2.80;;;1.02;;
65825;SDS011;52586;-43.152;172.732;2023-04-03T08:43:29;2.45;;;1.00;;
65825;SDS011;52586;-43.152;172.732;2023-04-03T08:46:05;3.35;;;1.35;;
65825;SDS011;52586;-43.152;172.732;2023-04-03T08:48:39;3.13;;;1.67;;
65825;SDS011;52586;-43.152;172.732;2023-04-03T08:51:14;3.38;;;1.20;;
65825;SDS011;52586;-43.152;172.732;2023-04-03T08:53:46;2.10;;;1.20;;
65825;SDS011;52586;-43.152;172.732;2023-04-03T08:56:24;2.53;;;1.20;;
65825;SDS011;52586;-43.152;172.732;2023-04-03T08:58:56;1.85;;;1.13;;
65825;SDS011;52586;-43.152;172.732;2023-04-03T09:01:30;2.05;;;1.10;;
65825;SDS011;52586;-43.152;172.732;2023-04-03T09:04:09;3.17;;;1.10;;
65825;SDS011;52586;-43.152;172.732;2023-04-03T09:06:44;1.27;;;0.90;;
65825;SDS011;52586;-43.152;172.732;2023-04-03T09:09:21;2.60;;;1.25;;
65825;SDS011;52586;-43.152;172.732;2023-04-03T09:12:03;3.97;;;1.33;;
65825;SDS011;52586;-43.152;172.732;2023-04-03T09:14:42;1.73;;;1.00;;
65825;SDS011;52586;-43.152;172.732;2023-04-03T09:17:20;2.45;;;1.17;;
65825;SDS011;52586;-43.152;172.732;2023-04-03T09:20:01;1.50;;;1.20;;
65825;SDS011;52586;-43.152;172.732;2023-04-03T09:22:40;1.48;;;1.25;;
65825;SDS011;52586;-43.152;172.732;2023-04-03T09:25:12;2.55;;;1.20;;
65825;SDS011;52586;-43.152;172.732;2023-04-03T09:27:46;2.80;;;1.20;;
65825;SDS011;52586;-43.152;172.732;2023-04-03T09:30:17;2.83;;;1.02;;
65825;SDS011;52586;-43.152;172.732;2023-04-03T09:32:50;1.38;;;1.10;;
65825;SDS011;52586;-43.152;172.732;2023-04-03T09:35:23;2.05;;;1.23;;
65825;SDS011;52586;-43.152;172.732;2023-04-03T09:37:58;2.65;;;1.40;;
65825;SDS011;52586;-43.152;172.732;2023-04-03T09:40:33;2.65;;;1.25;;
65825;SDS011;52586;-43.152;172.732;2023-04-03T09:43:25;2.72;;;1.50;;
65825;SDS011;52586;-43.152;172.732;2023-04-03T09:48:52;4.45;;;1.70;;
65825;SDS011;52586;-43.152;172.732;2023-04-03T09:51:27;5.20;;;1.50;;
65825;SDS011;52586;-43.152;172.732;2023-04-03T09:54:00;4.13;;;1.50;;
65825;SDS011;52586;-43.152;172.732;2023-04-03T09:57:09;2.88;;;1.40;;
65825;SDS011;52586;-43.152;172.732;2023-04-03T09:59:42;2.78;;;1.48;;
65825;SDS011;52586;-43.152;172.732;2023-04-03T10:02:23;3.00;;;1.48;;
65825;SDS011;52586;-43.152;172.732;2023-04-03T10:05:02;1.92;;;0.90;;
65825;SDS011;52586;-43.152;172.732;2023-04-03T10:07:34;2.35;;;1.30;;
65825;SDS011;52586;-43.152;172.732;2023-04-03T10:10:18;3.47;;;1.52;;
65825;SDS011;52586;-43.152;172.732;2023-04-03T10:13:03;2.88;;;1.27;;
65825;SDS011;52586;-43.152;172.732;2023-04-03T10:15:36;2.33;;;1.20;;
65825;SDS011;52586;-43.152;172.732;2023-04-03T10:18:17;3.28;;;1.38;;
65825;SDS011;52586;-43.152;172.732;2023-04-03T10:21:02;4.95;;;1.50;;
65825;SDS011;52586;-43.152;172.732;2023-04-03T10:23:38;2.92;;;1.50;;
65825;SDS011;52586;-43.152;172.732;2023-04-03T10:26:16;2.95;;;1.20;;
65825;SDS011;52586;-43.152;172.732;2023-04-03T10:28:56;1.60;;;1.40;;
65825;SDS011;52586;-43.152;172.732;2023-04-03T10:31:33;2.38;;;1.35;;
65825;SDS011;52586;-43.152;172.732;2023-04-03T10:34:12;4.35;;;1.30;;
65825;SDS011;52586;-43.152;172.732;2023-04-03T10:36:50;3.13;;;1.40;;
65825;SDS011;52586;-43.152;172.732;2023-04-03T10:39:30;4.15;;;1.90;;
65825;SDS011;52586;-43.152;172.732;2023-04-03T10:42:08;2.30;;;1.60;;
65825;SDS011;52586;-43.152;172.732;2023-04-03T10:44:49;2.42;;;1.20;;
65825;SDS011;52586;-43.152;172.732;2023-04-03T10:47:37;2.75;;;1.40;;
65825;SDS011;52586;-43.152;172.732;2023-04-03T10:53:14;2.78;;;1.30;;
65825;SDS011;52586;-43.152;172.732;2023-04-03T10:55:56;2.67;;;1.40;;
65825;SDS011;52586;-43.152;172.732;2023-04-03T10:58:37;2.63;;;1.33;;
65825;SDS011;52586;-43.152;172.732;2023-04-03T11:01:13;3.53;;;1.30;;
65825;SDS011;52586;-43.152;172.732;2023-04-03T11:03:47;2.55;;;1.42;;
65825;SDS011;52586;-43.152;172.732;2023-04-03T11:06:21;1.25;;;0.98;;
65825;SDS011;52586;-43.152;172.732;2023-04-03T11:08:55;1.75;;;1.13;;
65825;SDS011;52586;-43.152;172.732;2023-04-03T11:11:30;2.00;;;1.00;;
65825;SDS011;52586;-43.152;172.732;2023-04-03T11:14:05;2.78;;;1.33;;
65825;SDS011;52586;-43.152;172.732;2023-04-03T11:16:45;3.05;;;1.20;;
65825;SDS011;52586;-43.152;172.732;2023-04-03T11:19:20;1.73;;;1.08;;
65825;SDS011;52586;-43.152;172.732;2023-04-03T11:22:04;2.80;;;1.45;;
65825;SDS011;52586;-43.152;172.732;2023-04-03T11:24:42;2.95;;;1.10;;
65825;SDS011;52586;-43.152;172.732;2023-04-03T11:27:23;2.47;;;1.38;;
65825;SDS011;52586;-43.152;172.732;2023-04-03T11:29:57;2.65;;;1.20;;
65825;SDS011;52586;-43.152;172.732;2023-04-03T11:32:36;2.42;;;1.27;;
65825;SDS011;52586;-43.152;172.732;2023-04-03T11:35:26;2.75;;;1.10;;
65825;SDS011;52586;-43.152;172.732;2023-04-03T11:37:58;1.40;;;1.25;;
65825;SDS011;52586;-43.152;172.732;2023-04-03T11:40:31;2.33;;;1.33;;
65825;SDS011;52586;-43.152;172.732;2023-04-03T11:43:06;2.53;;;1.38;;
65825;SDS011;52586;-43.152;172.732;2023-04-03T11:45:55;1.45;;;1.10;;
65825;SDS011;52586;-43.152;172.732;2023-04-03T11:48:47;2.55;;;1.00;;
65825;SDS011;52586;-43.152;172.732;2023-04-03T12:15:53;2.30;;;1.30;;
65825;SDS011;52586;-43.152;172.732;2023-04-03T12:24:31;2.30;;;1.13;;
65825;SDS011;52586;-43.152;172.732;2023-04-03T12:27:04;2.35;;;1.20;;
65825;SDS011;52586;-43.152;172.732;2023-04-03T12:29:53;1.10;;;0.93;;
65825;SDS011;52586;-43.152;172.732;2023-04-03T12:32:37;2.83;;;1.48;;
65825;SDS011;52586;-43.152;172.732;2023-04-03T12:35:27;2.28;;;1.20;;
65825;SDS011;52586;-43.152;172.732;2023-04-03T12:38:15;2.78;;;1.10;;
65825;SDS011;52586;-43.152;172.732;2023-04-03T12:41:17;2.67;;;1.08;;
65825;SDS011;52586;-43.152;172.732;2023-04-03T12:43:57;2.20;;;1.30;;
65825;SDS011;52586;-43.152;172.732;2023-04-03T12:46:36;1.60;;;1.02;;
65825;SDS011;52586;-43.152;172.732;2023-04-03T12:49:14;1.13;;;0.98;;
65825;SDS011;52586;-43.152;172.732;2023-04-03T12:51:59;2.05;;;1.00;;
65825;SDS011;52586;-43.152;172.732;2023-04-03T12:54:32;1.25;;;1.00;;
65825;SDS011;52586;-43.152;172.732;2023-04-03T12:57:11;1.40;;;1.10;;
65825;SDS011;52586;-43.152;172.732;2023-04-03T12:59:45;1.08;;;0.98;;
65825;SDS011;52586;-43.152;172.732;2023-04-03T13:02:23;1.95;;;1.00;;
65825;SDS011;52586;-43.152;172.732;2023-04-03T13:04:55;2.65;;;1.00;;
65825;SDS011;52586;-43.152;172.732;2023-04-03T13:07:29;2.08;;;1.38;;
65825;SDS011;52586;-43.152;172.732;2023-04-03T13:10:09;2.05;;;1.10;;
65825;SDS011;52586;-43.152;172.732;2023-04-03T13:12:52;1.88;;;1.05;;
65825;SDS011;52586;-43.152;172.732;2023-04-03T13:15:24;2.72;;;1.05;;
65825;SDS011;52586;-43.152;172.732;2023-04-03T13:17:56;1.98;;;1.05;;
65825;SDS011;52586;-43.152;172.732;2023-04-03T13:20:28;1.88;;;0.90;;
65825;SDS011;52586;-43.152;172.732;2023-04-03T13:23:00;1.15;;;1.00;;
65825;SDS011;52586;-43.152;172.732;2023-04-03T13:25:34;2.13;;;1.10;;
65825;SDS011;52586;-43.152;172.732;2023-04-03T13:28:12;2.08;;;1.10;;
65825;SDS011;52586;-43.152;172.732;2023-04-03T13:30:54;2.00;;;0.88;;
65825;SDS011;52586;-43.152;172.732;2023-04-03T13:33:29;2.15;;;1.00;;
65825;SDS011;52586;-43.152;172.732;2023-04-03T13:36:04;1.65;;;0.88;;
65825;SDS011;52586;-43.152;172.732;2023-04-03T13:38:36;2.25;;;1.30;;
65825;SDS011;52586;-43.152;172.732;2023-04-03T13:41:22;1.40;;;0.90;;
65825;SDS011;52586;-43.152;172.732;2023-04-03T13:43:57;2.22;;;1.00;;
65825;SDS011;52586;-43.152;172.732;2023-04-03T13:46:46;1.52;;;1.00;;
65825;SDS011;52586;-43.152;172.732;2023-04-03T13:49:18;1.52;;;1.10;;
65825;SDS011;52586;-43.152;172.732;2023-04-03T13:51:50;1.75;;;0.95;;
65825;SDS011;52586;-43.152;172.732;2023-04-03T13:54:34;1.92;;;1.20;;
65825;SDS011;52586;-43.152;172.732;2023-04-03T13:57:11;1.95;;;1.20;;
65825;SDS011;52586;-43.152;172.732;2023-04-03T13:59:45;1.48;;;1.00;;
65825;SDS011;52586;-43.152;172.732;2023-04-03T14:02:17;1.38;;;0.98;;
65825;SDS011;52586;-43.152;172.732;2023-04-03T14:04:53;2.35;;;1.08;;
65825;SDS011;52586;-43.152;172.732;2023-04-03T14:07:27;1.92;;;1.08;;
65825;SDS011;52586;-43.152;172.732;2023-04-03T14:09:59;1.92;;;1.10;;
65825;SDS011;52586;-43.152;172.732;2023-04-03T14:12:31;1.58;;;0.90;;
65825;SDS011;52586;-43.152;172.732;2023-04-03T14:15:10;2.15;;;1.17;;
65825;SDS011;52586;-43.152;172.732;2023-04-03T14:17:46;1.42;;;0.93;;
65825;SDS011;52586;-43.152;172.732;2023-04-03T14:20:18;2.80;;;1.20;;
65825;SDS011;52586;-43.152;172.732;2023-04-03T14:22:50;1.88;;;1.17;;
65825;SDS011;52586;-43.152;172.732;2023-04-03T14:25:27;2.17;;;1.20;;
65825;SDS011;52586;-43.152;172.732;2023-04-03T14:27:59;1.85;;;1.20;;
65825;SDS011;52586;-43.152;172.732;2023-04-03T14:30:32;1.42;;;1.10;;
65825;SDS011;52586;-43.152;172.732;2023-04-03T14:33:03;1.30;;;1.08;;
65825;SDS011;52586;-43.152;172.732;2023-04-03T14:35:36;2.28;;;1.00;;
65825;SDS011;52586;-43.152;172.732;2023-04-03T14:38:10;1.88;;;1.10;;
65825;SDS011;52586;-43.152;172.732;2023-04-03T14:40:49;1.90;;;1.17;;
65825;SDS011;52586;-43.152;172.732;2023-04-03T14:43:20;1.80;;;1.10;;
65825;SDS011;52586;-43.152;172.732;2023-04-03T14:45:54;1.38;;;1.02;;
65825;SDS011;52586;-43.152;172.732;2023-04-03T14:48:25;1.33;;;0.90;;
65825;SDS011;52586;-43.152;172.732;2023-04-03T14:50:58;1.73;;;0.90;;
65825;SDS011;52586;-43.152;172.732;2023-04-03T14:53:29;1.02;;;0.90;;
65825;SDS011;52586;-43.152;172.732;2023-04-03T14:56:00;1.63;;;1.00;;
65825;SDS011;52586;-43.152;172.732;2023-04-03T14:58:30;1.75;;;0.98;;
65825;SDS011;52586;-43.152;172.732;2023-04-03T15:01:04;2.65;;;1.05;;
65825;SDS011;52586;-43.152;172.732;2023-04-03T15:03:35;2.03;;;1.20;;
65825;SDS011;52586;-43.152;172.732;2023-04-03T15:06:05;2.00;;;1.02;;
65825;SDS011;52586;-43.152;172.732;2023-04-03T15:08:38;1.70;;;1.13;;
65825;SDS011;52586;-43.152;172.732;2023-04-03T15:11:09;1.38;;;0.90;;
65825;SDS011;52586;-43.152;172.732;2023-04-03T15:13:40;1.20;;;1.00;;
65825;SDS011;52586;-43.152;172.732;2023-04-03T15:16:15;1.15;;;0.90;;
65825;SDS011;52586;-43.152;172.732;2023-04-03T15:18:47;1.45;;;1.10;;
65825;SDS011;52586;-43.152;172.732;2023-04-03T15:21:18;1.40;;;1.00;;
65825;SDS011;52586;-43.152;172.732;2023-04-03T15:23:48;1.10;;;0.88;;
65825;SDS011;52586;-43.152;172.732;2023-04-03T15:26:19;1.73;;;0.95;;
65825;SDS011;52586;-43.152;172.732;2023-04-03T15:28:50;0.82;;;0.80;;